Jimmy Lake, Canada
Current Conditions -  °F | °C
As of 11:00 AM on Tuesday 21 Oct 2014 (Local Time) from CWHN Reporting Station
Clear Clear  
Wind Chill: 52°   Ceiling: Unl
Heat Index: 52°   Visibility: 9mi
Dew Point: 41°   Wind: 7mph
Humidity: 67%   Direction: 320°NW
Pressure: 29.52"   Gusts: NA
Location:  54.9°N, 109.97°W
Report Text: CWHN 211700Z AUTO 32006KT 280V360 9SM CLR 11/05 A2952 RMK SLP011
Loading
Personal Weather Stations






























Interactive Weather Map
Tropical Storm Tracking
New forecast layout! Learn more

10-Day Weather Forecast

Advertisements
Track Severe Weather on mobile